Weather at Dane County Regional Truax Field

Public forecast

Using degrees Fahrenheit for public forecast. Weather courtesy of forecast.io.

Current aviation weather report (METAR) for Dane County Regional Truax Field

Retrieved 2021/03/01 00:53 UTC (1 hour ago):

KMSN 010053Z 31007KT 10SM FEW026 02/M02 A2987 RMK AO2 PK WND 31026/0020 SLP124 T00171022

Aviation forecast (TAF) for Dane County Regional Truax Field

Retrieved 2021-03-01 00:22 UTC (2 hours ago):

TAF KMSN 282320Z 0100/0124 31014G24KT P6SM BKN015 FM010300 30012KT P6SM SCT200 FM011600 34008KT P6SM VCSH BKN045 FM011800 34009KT P6SM SCT030